EBBR Airport Information

Runway Information
Runway 01 Length 9800 ft width 164 ft
Elevation 183 ft Threshold 151 ft Heading 14
Runway 19 Length 9800 ft Width 164 ft
Elevation 113 ft Threshold 571 ft Heading 194
Runway 07L Length 11936 ft width 148 ft
Elevation 129 ft Threshold 846 ft Heading 65
Runway 25R Length 11936 ft Width 148 ft
Elevation 110 ft Threshold 984 ft Heading 245
Runway 07R Length 10535 ft width 148 ft
Elevation 175 ft Threshold 400 ft Heading 70
Runway 25L Length 10535 ft Width 148 ft
Elevation 159 ft Threshold 0 ft Heading 250
Airport Frequencies
Type APP Name APP Frequency 118.25 MHZ
Type ATIS Name ATIS DEP Frequency 121.75 MHZ
Type ATIS Name ATIS ARR Frequency 132.475 MHZ
Type CLD Name CLNC DEL Frequency 121.95 MHZ
Type DEP Name DEP Frequency 126.625 MHZ
Type GND Name GND North Frequency 118.05 MHZ
Type GND Name GND South Frequency 121.875 MHZ
Type OPS Name MELSBROEK Frequency 140.575 MHZ
Type TWR Name TWR (RWY 0 Frequency 118.6 MHZ
Type TWR Name TWR (RWY 0 Frequency 120.775 MHZ
Type UNIC Name ABELAG UNI Frequency 130.55 MHZ
Airport Navaids
Type VOR-DME Name Affligem Frequency 114900 KHZ
Type VOR-DME Name Brussels Frequency 114600 KHZ
Type VOR-DME Name Bruno Frequency 110600 KHZ
Type NDB Name Brussels Frequency 293 KHZ
Type NDB Name Brussels Frequency 314 KHZ
Airport Weather Information & NOTAM
ADDS - METARS form results

(1847 UTC 23 August 2019)
Data provider http://aviationweather.gov/metar/data/
 
METAR text: EBBR 231820Z 06003KT CAVOK 24/13 Q1023 NOSIG
Conditions at: EBBR (BRUSSELS NATIONA, BE) observed 1820 UTC 23 August 2019
Temperature: 24.0°C (75°F)
Dewpoint: 13.0°C (55°F) [RH = 50%]
Pressure (altimeter): 30.21 inches Hg (1023.0 mb)
Winds: from the ENE (60 degrees) at 3 MPH (3 knots; 1.5 m/s)
Visibility: 6 or more miles (10+ km)
Ceiling: ceiling and visibility are OK
Clouds: unknown
Weather: no significant weather observed at this time

METAR text: EBBR 231750Z 07003KT CAVOK 25/12 Q1023 NOSIG
Conditions at: EBBR (BRUSSELS NATIONA, BE) observed 1750 UTC 23 August 2019
Temperature: 25.0°C (77°F)
Dewpoint: 12.0°C (54°F) [RH = 44%]
Pressure (altimeter): 30.21 inches Hg (1023.0 mb)
Winds: from the ENE (70 degrees) at 3 MPH (3 knots; 1.5 m/s)
Visibility: 6 or more miles (10+ km)
Ceiling: ceiling and visibility are OK
Clouds: unknown
Weather: no significant weather observed at this time

Forecast for: EBBR (BRUSSELS NATIONA, BE)
Text: TAF EBBR 231710Z 2318/2424 09003KT CAVOK
Forecast period: 1800 UTC 23 August 2019 to 0000 UTC 25 August 2019
Forecast type: FROM: standard forecast or significant change
Winds: from the E (90 degrees) at 3 MPH (3 knots; 1.5 m/s)
Visibility: 6 or more miles 10+ km)
Ceiling: unknown
Clouds: missing
Weather: NSW  (no significant weather)